sensor_id;sensor_type;location;lat;lon;timestamp;P1;durP1;ratioP1;P2;durP2;ratioP2
25972;SDS011;13765;51.166;4.466;2022-08-01T00:01:24;9.70;;;3.45;;
25972;SDS011;13765;51.166;4.466;2022-08-01T00:03:50;15.98;;;3.17;;
25972;SDS011;13765;51.166;4.466;2022-08-01T00:06:18;8.45;;;3.08;;
25972;SDS011;13765;51.166;4.466;2022-08-01T00:08:44;9.60;;;2.83;;
25972;SDS011;13765;51.166;4.466;2022-08-01T00:11:10;10.82;;;2.88;;
25972;SDS011;13765;51.166;4.466;2022-08-01T00:13:36;11.50;;;2.83;;
25972;SDS011;13765;51.166;4.466;2022-08-01T00:16:03;9.93;;;3.13;;
25972;SDS011;13765;51.166;4.466;2022-08-01T00:18:29;11.93;;;2.95;;
25972;SDS011;13765;51.166;4.466;2022-08-01T00:20:57;12.10;;;3.30;;
25972;SDS011;13765;51.166;4.466;2022-08-01T00:23:23;11.60;;;3.63;;
25972;SDS011;13765;51.166;4.466;2022-08-01T00:25:49;14.40;;;2.88;;
25972;SDS011;13765;51.166;4.466;2022-08-01T00:28:15;12.85;;;3.42;;
25972;SDS011;13765;51.166;4.466;2022-08-01T00:30:41;10.13;;;3.08;;
25972;SDS011;13765;51.166;4.466;2022-08-01T00:33:07;9.50;;;3.35;;
25972;SDS011;13765;51.166;4.466;2022-08-01T00:35:33;10.10;;;3.83;;
25972;SDS011;13765;51.166;4.466;2022-08-01T00:38:01;14.52;;;4.30;;
25972;SDS011;13765;51.166;4.466;2022-08-01T00:40:29;9.52;;;3.80;;
25972;SDS011;13765;51.166;4.466;2022-08-01T00:42:57;11.68;;;3.83;;
25972;SDS011;13765;51.166;4.466;2022-08-01T00:45:23;14.85;;;4.75;;
25972;SDS011;13765;51.166;4.466;2022-08-01T00:47:52;14.38;;;3.75;;
25972;SDS011;13765;51.166;4.466;2022-08-01T00:50:18;13.68;;;3.90;;
25972;SDS011;13765;51.166;4.466;2022-08-01T00:52:43;12.05;;;3.53;;
25972;SDS011;13765;51.166;4.466;2022-08-01T00:55:15;12.48;;;3.97;;
25972;SDS011;13765;51.166;4.466;2022-08-01T00:57:43;11.93;;;3.78;;
25972;SDS011;13765;51.166;4.466;2022-08-01T01:00:11;11.30;;;3.42;;
25972;SDS011;13765;51.166;4.466;2022-08-01T01:02:37;12.90;;;3.45;;
25972;SDS011;13765;51.166;4.466;2022-08-01T01:05:03;15.98;;;4.43;;
25972;SDS011;13765;51.166;4.466;2022-08-01T01:15:25;14.40;;;4.95;;
25972;SDS011;13765;51.166;4.466;2022-08-01T01:18:03;18.45;;;5.05;;
25972;SDS011;13765;51.166;4.466;2022-08-01T01:20:39;15.63;;;5.57;;
25972;SDS011;13765;51.166;4.466;2022-08-01T01:23:12;22.00;;;5.45;;
25972;SDS011;13765;51.166;4.466;2022-08-01T01:28:50;17.27;;;5.90;;
25972;SDS011;13765;51.166;4.466;2022-08-01T01:31:20;19.95;;;5.63;;
25972;SDS011;13765;51.166;4.466;2022-08-01T01:33:48;22.38;;;6.35;;
25972;SDS011;13765;51.166;4.466;2022-08-01T01:36:16;21.52;;;6.43;;
25972;SDS011;13765;51.166;4.466;2022-08-01T01:38:46;29.75;;;9.88;;
25972;SDS011;13765;51.166;4.466;2022-08-01T01:41:16;27.42;;;8.02;;
25972;SDS011;13765;51.166;4.466;2022-08-01T01:43:43;28.08;;;9.88;;
25972;SDS011;13765;51.166;4.466;2022-08-01T01:46:12;25.30;;;9.85;;
25972;SDS011;13765;51.166;4.466;2022-08-01T01:48:41;36.08;;;12.40;;
25972;SDS011;13765;51.166;4.466;2022-08-01T01:51:10;31.13;;;11.82;;
25972;SDS011;13765;51.166;4.466;2022-08-01T01:53:40;34.03;;;11.15;;
25972;SDS011;13765;51.166;4.466;2022-08-01T01:56:06;32.85;;;12.35;;
25972;SDS011;13765;51.166;4.466;2022-08-01T01:58:40;27.63;;;9.48;;
25972;SDS011;13765;51.166;4.466;2022-08-01T02:01:07;31.77;;;10.07;;
25972;SDS011;13765;51.166;4.466;2022-08-01T02:03:34;26.52;;;9.32;;
25972;SDS011;13765;51.166;4.466;2022-08-01T02:06:02;24.58;;;8.25;;
25972;SDS011;13765;51.166;4.466;2022-08-01T02:08:28;21.02;;;7.65;;
25972;SDS011;13765;51.166;4.466;2022-08-01T02:10:56;27.27;;;8.50;;
25972;SDS011;13765;51.166;4.466;2022-08-01T02:13:42;23.60;;;9.63;;
25972;SDS011;13765;51.166;4.466;2022-08-01T02:16:10;25.23;;;7.97;;
25972;SDS011;13765;51.166;4.466;2022-08-01T02:18:37;21.70;;;7.03;;
25972;SDS011;13765;51.166;4.466;2022-08-01T02:21:04;21.88;;;7.28;;
25972;SDS011;13765;51.166;4.466;2022-08-01T02:23:36;25.05;;;7.85;;
25972;SDS011;13765;51.166;4.466;2022-08-01T02:26:05;21.88;;;8.25;;
25972;SDS011;13765;51.166;4.466;2022-08-01T02:28:45;19.48;;;6.68;;
25972;SDS011;13765;51.166;4.466;2022-08-01T02:31:17;19.88;;;6.38;;
25972;SDS011;13765;51.166;4.466;2022-08-01T02:33:49;20.95;;;6.55;;
25972;SDS011;13765;51.166;4.466;2022-08-01T02:36:23;20.10;;;6.53;;
25972;SDS011;13765;51.166;4.466;2022-08-01T02:38:51;21.92;;;5.35;;
25972;SDS011;13765;51.166;4.466;2022-08-01T02:41:21;13.65;;;4.22;;
25972;SDS011;13765;51.166;4.466;2022-08-01T02:43:51;16.27;;;4.85;;
25972;SDS011;13765;51.166;4.466;2022-08-01T02:46:29;17.20;;;4.95;;
25972;SDS011;13765;51.166;4.466;2022-08-01T02:49:01;17.98;;;4.32;;
25972;SDS011;13765;51.166;4.466;2022-08-01T02:51:32;13.55;;;4.03;;
25972;SDS011;13765;51.166;4.466;2022-08-01T02:54:00;15.50;;;4.88;;
25972;SDS011;13765;51.166;4.466;2022-08-01T02:56:27;13.45;;;3.70;;
25972;SDS011;13765;51.166;4.466;2022-08-01T02:59:00;16.05;;;4.53;;
25972;SDS011;13765;51.166;4.466;2022-08-01T03:01:28;16.25;;;3.97;;
25972;SDS011;13765;51.166;4.466;2022-08-01T03:03:55;15.52;;;4.00;;
25972;SDS011;13765;51.166;4.466;2022-08-01T03:06:21;11.10;;;3.78;;
25972;SDS011;13765;51.166;4.466;2022-08-01T03:08:48;14.32;;;3.95;;
25972;SDS011;13765;51.166;4.466;2022-08-01T03:11:17;15.55;;;3.90;;
25972;SDS011;13765;51.166;4.466;2022-08-01T03:13:44;10.35;;;3.20;;
25972;SDS011;13765;51.166;4.466;2022-08-01T03:16:12;12.65;;;3.20;;
25972;SDS011;13765;51.166;4.466;2022-08-01T03:18:40;13.30;;;3.95;;
25972;SDS011;13765;51.166;4.466;2022-08-01T03:21:09;12.00;;;3.40;;
25972;SDS011;13765;51.166;4.466;2022-08-01T03:23:40;7.82;;;3.13;;
25972;SDS011;13765;51.166;4.466;2022-08-01T03:26:10;11.30;;;3.35;;
25972;SDS011;13765;51.166;4.466;2022-08-01T03:28:37;12.80;;;4.53;;
25972;SDS011;13765;51.166;4.466;2022-08-01T03:31:05;10.75;;;3.38;;
25972;SDS011;13765;51.166;4.466;2022-08-01T03:33:34;8.38;;;3.10;;
25972;SDS011;13765;51.166;4.466;2022-08-01T03:36:00;8.98;;;3.20;;
25972;SDS011;13765;51.166;4.466;2022-08-01T03:38:30;8.75;;;3.22;;
25972;SDS011;13765;51.166;4.466;2022-08-01T03:40:59;11.90;;;3.22;;
25972;SDS011;13765;51.166;4.466;2022-08-01T03:43:37;6.82;;;2.92;;
25972;SDS011;13765;51.166;4.466;2022-08-01T03:48:46;7.60;;;2.88;;
25972;SDS011;13765;51.166;4.466;2022-08-01T03:51:13;6.47;;;2.40;;
25972;SDS011;13765;51.166;4.466;2022-08-01T03:53:45;11.23;;;2.88;;
25972;SDS011;13765;51.166;4.466;2022-08-01T03:56:13;7.97;;;3.03;;
25972;SDS011;13765;51.166;4.466;2022-08-01T03:58:44;7.40;;;2.58;;
25972;SDS011;13765;51.166;4.466;2022-08-01T04:01:10;10.63;;;2.75;;
25972;SDS011;13765;51.166;4.466;2022-08-01T04:03:40;7.65;;;2.75;;
25972;SDS011;13765;51.166;4.466;2022-08-01T04:06:06;8.93;;;2.33;;
25972;SDS011;13765;51.166;4.466;2022-08-01T04:08:35;9.68;;;2.67;;
25972;SDS011;13765;51.166;4.466;2022-08-01T04:11:05;14.10;;;2.85;;
25972;SDS011;13765;51.166;4.466;2022-08-01T04:13:32;7.43;;;2.83;;
25972;SDS011;13765;51.166;4.466;2022-08-01T04:15:59;16.35;;;3.20;;
25972;SDS011;13765;51.166;4.466;2022-08-01T04:18:27;8.23;;;2.55;;
25972;SDS011;13765;51.166;4.466;2022-08-01T04:20:53;8.27;;;2.10;;
25972;SDS011;13765;51.166;4.466;2022-08-01T04:23:24;6.15;;;2.40;;
25972;SDS011;13765;51.166;4.466;2022-08-01T04:25:53;7.90;;;2.78;;
25972;SDS011;13765;51.166;4.466;2022-08-01T04:28:20;7.18;;;2.75;;
25972;SDS011;13765;51.166;4.466;2022-08-01T04:30:50;5.97;;;2.33;;
25972;SDS011;13765;51.166;4.466;2022-08-01T04:33:19;6.35;;;2.17;;
25972;SDS011;13765;51.166;4.466;2022-08-01T04:35:48;7.03;;;2.45;;
25972;SDS011;13765;51.166;4.466;2022-08-01T04:38:19;4.85;;;1.75;;
25972;SDS011;13765;51.166;4.466;2022-08-01T04:40:49;4.55;;;1.95;;
25972;SDS011;13765;51.166;4.466;2022-08-01T04:43:17;7.63;;;2.28;;
25972;SDS011;13765;51.166;4.466;2022-08-01T04:45:46;6.35;;;2.20;;
25972;SDS011;13765;51.166;4.466;2022-08-01T04:48:13;7.15;;;2.03;;
25972;SDS011;13765;51.166;4.466;2022-08-01T04:50:42;9.80;;;2.65;;
25972;SDS011;13765;51.166;4.466;2022-08-01T04:53:18;4.80;;;1.45;;
25972;SDS011;13765;51.166;4.466;2022-08-01T04:55:46;8.68;;;2.80;;
25972;SDS011;13765;51.166;4.466;2022-08-01T04:58:15;7.72;;;2.22;;
25972;SDS011;13765;51.166;4.466;2022-08-01T05:00:41;7.05;;;2.08;;
25972;SDS011;13765;51.166;4.466;2022-08-01T05:03:09;5.80;;;1.70;;
25972;SDS011;13765;51.166;4.466;2022-08-01T05:05:34;6.95;;;2.72;;
25972;SDS011;13765;51.166;4.466;2022-08-01T05:08:03;3.83;;;1.60;;
25972;SDS011;13765;51.166;4.466;2022-08-01T05:10:31;5.80;;;2.15;;
25972;SDS011;13765;51.166;4.466;2022-08-01T05:12:59;5.40;;;1.95;;
25972;SDS011;13765;51.166;4.466;2022-08-01T05:15:28;7.40;;;1.90;;
25972;SDS011;13765;51.166;4.466;2022-08-01T05:17:57;6.03;;;1.58;;
25972;SDS011;13765;51.166;4.466;2022-08-01T05:20:23;2.92;;;1.30;;
25972;SDS011;13765;51.166;4.466;2022-08-01T05:22:51;6.60;;;1.25;;
25972;SDS011;13765;51.166;4.466;2022-08-01T05:25:16;4.97;;;1.75;;
25972;SDS011;13765;51.166;4.466;2022-08-01T05:27:42;3.65;;;1.05;;
25972;SDS011;13765;51.166;4.466;2022-08-01T05:30:10;3.95;;;1.00;;
25972;SDS011;13765;51.166;4.466;2022-08-01T05:32:39;5.82;;;1.35;;
25972;SDS011;13765;51.166;4.466;2022-08-01T05:35:06;3.35;;;1.20;;
25972;SDS011;13765;51.166;4.466;2022-08-01T05:37:34;3.50;;;0.82;;
25972;SDS011;13765;51.166;4.466;2022-08-01T05:40:02;2.92;;;0.82;;
25972;SDS011;13765;51.166;4.466;2022-08-01T05:42:29;4.35;;;1.17;;
25972;SDS011;13765;51.166;4.466;2022-08-01T05:44:55;1.73;;;0.88;;
25972;SDS011;13765;51.166;4.466;2022-08-01T05:47:21;2.95;;;1.10;;
25972;SDS011;13765;51.166;4.466;2022-08-01T05:49:47;5.32;;;1.20;;
25972;SDS011;13765;51.166;4.466;2022-08-01T05:52:12;2.00;;;0.88;;
25972;SDS011;13765;51.166;4.466;2022-08-01T05:54:41;4.18;;;1.20;;
25972;SDS011;13765;51.166;4.466;2022-08-01T05:57:07;1.75;;;0.90;;
25972;SDS011;13765;51.166;4.466;2022-08-01T05:59:35;2.35;;;0.82;;
25972;SDS011;13765;51.166;4.466;2022-08-01T06:02:03;2.63;;;1.25;;
25972;SDS011;13765;51.166;4.466;2022-08-01T06:04:31;1.85;;;0.90;;
25972;SDS011;13765;51.166;4.466;2022-08-01T06:06:57;3.63;;;1.25;;
25972;SDS011;13765;51.166;4.466;2022-08-01T06:09:26;6.32;;;0.80;;
25972;SDS011;13765;51.166;4.466;2022-08-01T06:11:52;2.25;;;1.17;;
25972;SDS011;13765;51.166;4.466;2022-08-01T06:14:18;4.97;;;1.10;;
25972;SDS011;13765;51.166;4.466;2022-08-01T06:16:43;3.85;;;1.17;;
25972;SDS011;13765;51.166;4.466;2022-08-01T06:19:11;1.88;;;1.00;;
25972;SDS011;13765;51.166;4.466;2022-08-01T06:21:39;4.32;;;1.30;;
25972;SDS011;13765;51.166;4.466;2022-08-01T06:24:05;1.77;;;1.05;;
25972;SDS011;13765;51.166;4.466;2022-08-01T06:26:31;3.78;;;1.25;;
25972;SDS011;13765;51.166;4.466;2022-08-01T06:28:59;2.30;;;0.80;;
25972;SDS011;13765;51.166;4.466;2022-08-01T06:31:25;2.90;;;1.40;;
25972;SDS011;13765;51.166;4.466;2022-08-01T06:33:59;9.60;;;1.45;;
25972;SDS011;13765;51.166;4.466;2022-08-01T06:36:25;7.50;;;1.52;;
25972;SDS011;13765;51.166;4.466;2022-08-01T06:38:54;3.75;;;1.17;;
25972;SDS011;13765;51.166;4.466;2022-08-01T06:41:22;8.60;;;1.52;;
25972;SDS011;13765;51.166;4.466;2022-08-01T06:43:48;2.58;;;0.80;;
25972;SDS011;13765;51.166;4.466;2022-08-01T06:46:14;1.52;;;0.80;;
25972;SDS011;13765;51.166;4.466;2022-08-01T06:48:40;2.90;;;0.85;;
25972;SDS011;13765;51.166;4.466;2022-08-01T06:51:10;0.65;;;0.50;;
25972;SDS011;13765;51.166;4.466;2022-08-01T06:53:39;2.55;;;0.68;;
25972;SDS011;13765;51.166;4.466;2022-08-01T06:56:05;3.05;;;0.73;;
25972;SDS011;13765;51.166;4.466;2022-08-01T06:58:37;2.60;;;1.52;;
25972;SDS011;13765;51.166;4.466;2022-08-01T07:01:03;2.10;;;1.10;;
25972;SDS011;13765;51.166;4.466;2022-08-01T07:03:34;2.90;;;0.55;;
25972;SDS011;13765;51.166;4.466;2022-08-01T07:06:01;4.10;;;0.77;;
25972;SDS011;13765;51.166;4.466;2022-08-01T07:08:27;1.65;;;0.68;;
25972;SDS011;13765;51.166;4.466;2022-08-01T07:10:53;4.82;;;0.80;;
25972;SDS011;13765;51.166;4.466;2022-08-01T07:13:20;2.63;;;0.95;;
25972;SDS011;13765;51.166;4.466;2022-08-01T07:15:49;1.00;;;0.65;;
25972;SDS011;13765;51.166;4.466;2022-08-01T07:18:15;1.85;;;0.93;;
25972;SDS011;13765;51.166;4.466;2022-08-01T07:20:41;0.95;;;0.68;;
25972;SDS011;13765;51.166;4.466;2022-08-01T07:23:08;2.10;;;0.70;;
25972;SDS011;13765;51.166;4.466;2022-08-01T07:25:35;0.43;;;0.40;;
25972;SDS011;13765;51.166;4.466;2022-08-01T07:28:04;2.88;;;0.63;;
25972;SDS011;13765;51.166;4.466;2022-08-01T07:30:30;2.78;;;0.75;;
25972;SDS011;13765;51.166;4.466;2022-08-01T07:32:56;2.97;;;0.80;;
25972;SDS011;13765;51.166;4.466;2022-08-01T07:35:22;2.30;;;0.90;;
25972;SDS011;13765;51.166;4.466;2022-08-01T07:37:48;1.55;;;0.80;;
25972;SDS011;13765;51.166;4.466;2022-08-01T07:40:14;2.53;;;1.23;;
25972;SDS011;13765;51.166;4.466;2022-08-01T07:42:41;2.95;;;0.90;;
25972;SDS011;13765;51.166;4.466;2022-08-01T07:45:10;1.17;;;0.65;;
25972;SDS011;13765;51.166;4.466;2022-08-01T07:47:36;2.13;;;1.20;;
25972;SDS011;13765;51.166;4.466;2022-08-01T07:50:03;3.15;;;1.38;;
25972;SDS011;13765;51.166;4.466;2022-08-01T07:52:31;1.00;;;0.65;;
25972;SDS011;13765;51.166;4.466;2022-08-01T07:54:57;1.85;;;1.20;;
25972;SDS011;13765;51.166;4.466;2022-08-01T07:57:26;4.60;;;1.38;;
25972;SDS011;13765;51.166;4.466;2022-08-01T07:59:52;4.32;;;1.15;;
25972;SDS011;13765;51.166;4.466;2022-08-01T08:02:23;2.45;;;1.15;;
25972;SDS011;13765;51.166;4.466;2022-08-01T08:04:48;4.07;;;1.33;;
25972;SDS011;13765;51.166;4.466;2022-08-01T08:07:16;3.22;;;1.30;;
25972;SDS011;13765;51.166;4.466;2022-08-01T08:09:45;3.40;;;1.30;;
25972;SDS011;13765;51.166;4.466;2022-08-01T08:12:15;2.75;;;1.13;;
25972;SDS011;13765;51.166;4.466;2022-08-01T08:14:41;9.77;;;1.40;;
25972;SDS011;13765;51.166;4.466;2022-08-01T08:17:07;3.67;;;1.23;;
25972;SDS011;13765;51.166;4.466;2022-08-01T08:19:38;5.32;;;1.55;;
25972;SDS011;13765;51.166;4.466;2022-08-01T08:22:05;0.98;;;0.77;;
25972;SDS011;13765;51.166;4.466;2022-08-01T08:24:32;3.10;;;1.13;;
25972;SDS011;13765;51.166;4.466;2022-08-01T08:26:58;1.08;;;0.90;;
25972;SDS011;13765;51.166;4.466;2022-08-01T08:29:26;1.42;;;0.55;;
25972;SDS011;13765;51.166;4.466;2022-08-01T08:31:54;1.88;;;0.85;;
25972;SDS011;13765;51.166;4.466;2022-08-01T08:34:21;1.63;;;1.00;;
25972;SDS011;13765;51.166;4.466;2022-08-01T08:36:47;1.65;;;1.02;;
25972;SDS011;13765;51.166;4.466;2022-08-01T08:39:14;4.93;;;1.35;;
25972;SDS011;13765;51.166;4.466;2022-08-01T08:41:40;5.95;;;1.45;;
25972;SDS011;13765;51.166;4.466;2022-08-01T08:44:08;3.10;;;1.08;;
25972;SDS011;13765;51.166;4.466;2022-08-01T08:46:42;5.82;;;1.35;;
25972;SDS011;13765;51.166;4.466;2022-08-01T08:49:13;2.13;;;1.17;;
25972;SDS011;13765;51.166;4.466;2022-08-01T08:51:48;5.88;;;1.05;;
25972;SDS011;13765;51.166;4.466;2022-08-01T08:54:15;3.10;;;1.88;;
25972;SDS011;13765;51.166;4.466;2022-08-01T08:56:47;1.50;;;1.20;;
25972;SDS011;13765;51.166;4.466;2022-08-01T08:59:16;3.72;;;1.50;;
25972;SDS011;13765;51.166;4.466;2022-08-01T09:01:41;2.97;;;1.45;;
25972;SDS011;13765;51.166;4.466;2022-08-01T09:04:10;5.85;;;1.55;;
25972;SDS011;13765;51.166;4.466;2022-08-01T09:06:39;3.42;;;1.58;;
25972;SDS011;13765;51.166;4.466;2022-08-01T09:09:06;6.32;;;1.90;;
25972;SDS011;13765;51.166;4.466;2022-08-01T09:11:35;2.95;;;1.77;;
25972;SDS011;13765;51.166;4.466;2022-08-01T09:14:11;3.88;;;1.98;;
25972;SDS011;13765;51.166;4.466;2022-08-01T09:16:42;9.45;;;1.67;;
25972;SDS011;13765;51.166;4.466;2022-08-01T09:19:11;2.20;;;1.42;;
25972;SDS011;13765;51.166;4.466;2022-08-01T09:22:01;4.13;;;1.65;;
25972;SDS011;13765;51.166;4.466;2022-08-01T09:24:29;5.15;;;1.75;;
25972;SDS011;13765;51.166;4.466;2022-08-01T09:26:57;5.95;;;1.95;;
25972;SDS011;13765;51.166;4.466;2022-08-01T09:29:27;8.60;;;1.80;;
25972;SDS011;13765;51.166;4.466;2022-08-01T09:31:56;6.45;;;2.20;;
25972;SDS011;13765;51.166;4.466;2022-08-01T09:34:30;5.47;;;2.17;;
25972;SDS011;13765;51.166;4.466;2022-08-01T09:36:58;8.70;;;2.22;;
25972;SDS011;13765;51.166;4.466;2022-08-01T09:39:34;6.35;;;1.73;;
25972;SDS011;13765;51.166;4.466;2022-08-01T09:42:17;4.45;;;1.25;;
25972;SDS011;13765;51.166;4.466;2022-08-01T09:44:50;4.97;;;1.23;;
25972;SDS011;13765;51.166;4.466;2022-08-01T09:47:18;7.57;;;1.77;;
25972;SDS011;13765;51.166;4.466;2022-08-01T09:49:55;3.60;;;1.27;;
25972;SDS011;13765;51.166;4.466;2022-08-01T09:52:23;5.25;;;1.83;;
25972;SDS011;13765;51.166;4.466;2022-08-01T09:55:00;1.52;;;1.20;;
25972;SDS011;13765;51.166;4.466;2022-08-01T09:57:28;5.93;;;1.63;;
25972;SDS011;13765;51.166;4.466;2022-08-01T09:59:58;7.13;;;1.85;;
25972;SDS011;13765;51.166;4.466;2022-08-01T10:02:30;1.98;;;1.00;;
25972;SDS011;13765;51.166;4.466;2022-08-01T10:05:06;5.53;;;2.25;;
25972;SDS011;13765;51.166;4.466;2022-08-01T10:07:35;2.78;;;1.20;;
25972;SDS011;13765;51.166;4.466;2022-08-01T10:10:20;5.07;;;1.55;;
25972;SDS011;13765;51.166;4.466;2022-08-01T10:12:48;2.85;;;1.13;;
25972;SDS011;13765;51.166;4.466;2022-08-01T10:15:17;3.90;;;1.58;;
25972;SDS011;13765;51.166;4.466;2022-08-01T10:17:46;2.88;;;1.73;;
25972;SDS011;13765;51.166;4.466;2022-08-01T10:20:24;2.83;;;1.58;;
25972;SDS011;13765;51.166;4.466;2022-08-01T10:22:53;8.93;;;2.42;;
25972;SDS011;13765;51.166;4.466;2022-08-01T10:25:21;7.50;;;2.17;;
25972;SDS011;13765;51.166;4.466;2022-08-01T10:27:51;3.42;;;2.00;;
25972;SDS011;13765;51.166;4.466;2022-08-01T10:30:38;3.92;;;2.13;;
25972;SDS011;13765;51.166;4.466;2022-08-01T10:33:08;4.20;;;2.10;;
25972;SDS011;13765;51.166;4.466;2022-08-01T10:35:35;2.20;;;1.60;;
25972;SDS011;13765;51.166;4.466;2022-08-01T10:38:04;7.53;;;1.90;;
25972;SDS011;13765;51.166;4.466;2022-08-01T10:40:31;4.72;;;2.08;;
25972;SDS011;13765;51.166;4.466;2022-08-01T10:42:57;3.40;;;1.60;;
25972;SDS011;13765;51.166;4.466;2022-08-01T10:45:24;2.90;;;1.75;;
25972;SDS011;13765;51.166;4.466;2022-08-01T10:48:04;4.80;;;1.83;;
25972;SDS011;13765;51.166;4.466;2022-08-01T10:50:38;4.53;;;2.05;;
25972;SDS011;13765;51.166;4.466;2022-08-01T10:53:27;7.38;;;2.60;;
25972;SDS011;13765;51.166;4.466;2022-08-01T10:55:58;5.47;;;1.90;;
25972;SDS011;13765;51.166;4.466;2022-08-01T10:58:26;5.32;;;1.88;;
25972;SDS011;13765;51.166;4.466;2022-08-01T11:01:46;4.57;;;2.88;;
25972;SDS011;13765;51.166;4.466;2022-08-01T11:06:24;7.47;;;1.98;;
25972;SDS011;13765;51.166;4.466;2022-08-01T11:08:54;3.47;;;1.35;;
25972;SDS011;13765;51.166;4.466;2022-08-01T11:11:20;3.03;;;1.98;;
25972;SDS011;13765;51.166;4.466;2022-08-01T11:14:07;7.13;;;1.80;;
25972;SDS011;13765;51.166;4.466;2022-08-01T11:16:37;5.43;;;2.13;;
25972;SDS011;13765;51.166;4.466;2022-08-01T11:19:08;5.03;;;1.90;;
25972;SDS011;13765;51.166;4.466;2022-08-01T11:32:56;1.35;;;1.00;;
25972;SDS011;13765;51.166;4.466;2022-08-01T11:35:26;3.40;;;0.88;;
25972;SDS011;13765;51.166;4.466;2022-08-01T11:37:54;2.95;;;0.80;;
25972;SDS011;13765;51.166;4.466;2022-08-01T11:40:39;4.35;;;1.13;;
25972;SDS011;13765;51.166;4.466;2022-08-01T11:45:48;7.20;;;1.27;;
25972;SDS011;13765;51.166;4.466;2022-08-01T11:48:18;4.63;;;1.30;;
25972;SDS011;13765;51.166;4.466;2022-08-01T11:50:45;5.53;;;1.45;;
25972;SDS011;13765;51.166;4.466;2022-08-01T11:53:11;4.13;;;1.63;;
25972;SDS011;13765;51.166;4.466;2022-08-01T11:55:43;4.60;;;1.40;;
25972;SDS011;13765;51.166;4.466;2022-08-01T11:58:11;5.43;;;1.13;;
25972;SDS011;13765;51.166;4.466;2022-08-01T12:00:37;2.72;;;1.45;;
25972;SDS011;13765;51.166;4.466;2022-08-01T12:03:04;3.83;;;1.13;;
25972;SDS011;13765;51.166;4.466;2022-08-01T12:05:35;5.85;;;1.83;;
25972;SDS011;13765;51.166;4.466;2022-08-01T12:08:03;4.53;;;2.13;;
25972;SDS011;13765;51.166;4.466;2022-08-01T12:10:37;7.47;;;2.15;;
25972;SDS011;13765;51.166;4.466;2022-08-01T12:13:04;8.48;;;2.15;;
25972;SDS011;13765;51.166;4.466;2022-08-01T12:15:32;8.07;;;2.38;;
25972;SDS011;13765;51.166;4.466;2022-08-01T12:18:03;8.23;;;2.65;;
25972;SDS011;13765;51.166;4.466;2022-08-01T12:20:36;1.50;;;1.40;;
25972;SDS011;13765;51.166;4.466;2022-08-01T12:23:07;4.25;;;1.88;;
25972;SDS011;13765;51.166;4.466;2022-08-01T12:25:37;5.15;;;1.60;;
25972;SDS011;13765;51.166;4.466;2022-08-01T12:28:08;4.18;;;1.98;;
25972;SDS011;13765;51.166;4.466;2022-08-01T12:30:38;6.55;;;2.03;;
25972;SDS011;13765;51.166;4.466;2022-08-01T12:33:10;4.32;;;1.58;;
25972;SDS011;13765;51.166;4.466;2022-08-01T12:35:42;5.85;;;1.58;;
25972;SDS011;13765;51.166;4.466;2022-08-01T12:38:14;5.75;;;1.35;;
25972;SDS011;13765;51.166;4.466;2022-08-01T12:40:43;6.20;;;1.73;;
25972;SDS011;13765;51.166;4.466;2022-08-01T12:43:16;4.65;;;1.02;;
25972;SDS011;13765;51.166;4.466;2022-08-01T12:45:44;4.05;;;1.00;;
25972;SDS011;13765;51.166;4.466;2022-08-01T12:48:17;2.92;;;1.10;;
25972;SDS011;13765;51.166;4.466;2022-08-01T12:50:45;6.80;;;1.17;;
25972;SDS011;13765;51.166;4.466;2022-08-01T12:53:16;2.67;;;1.25;;
25972;SDS011;13765;51.166;4.466;2022-08-01T12:58:12;4.35;;;1.38;;
25972;SDS011;13765;51.166;4.466;2022-08-01T13:00:43;4.10;;;1.55;;
25972;SDS011;13765;51.166;4.466;2022-08-01T13:03:18;5.68;;;1.35;;
25972;SDS011;13765;51.166;4.466;2022-08-01T13:08:29;4.53;;;1.55;;
25972;SDS011;13765;51.166;4.466;2022-08-01T13:10:59;4.00;;;1.02;;
25972;SDS011;13765;51.166;4.466;2022-08-01T13:13:37;7.15;;;1.60;;
25972;SDS011;13765;51.166;4.466;2022-08-01T13:16:07;7.82;;;1.38;;
25972;SDS011;13765;51.166;4.466;2022-08-01T13:18:35;3.40;;;1.70;;
25972;SDS011;13765;51.166;4.466;2022-08-01T13:21:12;3.60;;;1.27;;
25972;SDS011;13765;51.166;4.466;2022-08-01T13:24:01;3.08;;;1.08;;
25972;SDS011;13765;51.166;4.466;2022-08-01T13:26:47;5.28;;;1.25;;
25972;SDS011;13765;51.166;4.466;2022-08-01T13:29:17;6.00;;;1.20;;
25972;SDS011;13765;51.166;4.466;2022-08-01T13:31:51;4.97;;;1.25;;
25972;SDS011;13765;51.166;4.466;2022-08-01T13:34:29;5.03;;;1.20;;
25972;SDS011;13765;51.166;4.466;2022-08-01T13:36:59;4.43;;;0.98;;
25972;SDS011;13765;51.166;4.466;2022-08-01T13:39:30;2.60;;;1.00;;
25972;SDS011;13765;51.166;4.466;2022-08-01T13:42:08;5.05;;;1.13;;
25972;SDS011;13765;51.166;4.466;2022-08-01T13:44:35;7.80;;;1.52;;
25972;SDS011;13765;51.166;4.466;2022-08-01T14:24:02;5.68;;;1.10;;
25972;SDS011;13765;51.166;4.466;2022-08-01T14:26:28;2.33;;;1.27;;
25972;SDS011;13765;51.166;4.466;2022-08-01T14:28:56;3.58;;;1.50;;
25972;SDS011;13765;51.166;4.466;2022-08-01T14:31:24;1.60;;;0.98;;
25972;SDS011;13765;51.166;4.466;2022-08-01T14:33:52;2.67;;;1.10;;
25972;SDS011;13765;51.166;4.466;2022-08-01T14:36:18;10.25;;;1.50;;
25972;SDS011;13765;51.166;4.466;2022-08-01T14:38:44;4.95;;;1.35;;
25972;SDS011;13765;51.166;4.466;2022-08-01T14:41:10;2.10;;;1.02;;
25972;SDS011;13765;51.166;4.466;2022-08-01T14:43:38;2.17;;;1.00;;
25972;SDS011;13765;51.166;4.466;2022-08-01T14:46:03;2.80;;;1.10;;
25972;SDS011;13765;51.166;4.466;2022-08-01T14:48:31;7.30;;;1.45;;
25972;SDS011;13765;51.166;4.466;2022-08-01T14:51:02;3.35;;;1.17;;
25972;SDS011;13765;51.166;4.466;2022-08-01T14:53:28;5.15;;;1.20;;
25972;SDS011;13765;51.166;4.466;2022-08-01T14:55:54;3.80;;;0.73;;
25972;SDS011;13765;51.166;4.466;2022-08-01T14:58:20;5.13;;;1.17;;
25972;SDS011;13765;51.166;4.466;2022-08-01T15:00:48;2.60;;;1.02;;
25972;SDS011;13765;51.166;4.466;2022-08-01T15:03:16;1.98;;;0.82;;
25972;SDS011;13765;51.166;4.466;2022-08-01T15:05:42;3.92;;;1.20;;
25972;SDS011;13765;51.166;4.466;2022-08-01T15:08:08;4.88;;;1.20;;
25972;SDS011;13765;51.166;4.466;2022-08-01T15:10:36;2.17;;;0.82;;
25972;SDS011;13765;51.166;4.466;2022-08-01T15:13:03;4.45;;;0.77;;
25972;SDS011;13765;51.166;4.466;2022-08-01T15:15:29;2.03;;;0.85;;
25972;SDS011;13765;51.166;4.466;2022-08-01T15:17:56;5.93;;;1.52;;
25972;SDS011;13765;51.166;4.466;2022-08-01T15:20:27;0.82;;;0.60;;
25972;SDS011;13765;51.166;4.466;2022-08-01T15:22:53;2.55;;;1.00;;
25972;SDS011;13765;51.166;4.466;2022-08-01T15:25:19;1.58;;;0.82;;
25972;SDS011;13765;51.166;4.466;2022-08-01T15:27:45;7.20;;;1.35;;
25972;SDS011;13765;51.166;4.466;2022-08-01T15:30:11;1.98;;;0.75;;
25972;SDS011;13765;51.166;4.466;2022-08-01T15:32:39;3.30;;;1.05;;
25972;SDS011;13765;51.166;4.466;2022-08-01T15:35:06;5.80;;;0.85;;
25972;SDS011;13765;51.166;4.466;2022-08-01T15:37:34;4.00;;;1.55;;
25972;SDS011;13765;51.166;4.466;2022-08-01T15:40:00;2.00;;;0.68;;
25972;SDS011;13765;51.166;4.466;2022-08-01T15:42:26;1.25;;;0.73;;
25972;SDS011;13765;51.166;4.466;2022-08-01T15:44:52;2.17;;;0.93;;
25972;SDS011;13765;51.166;4.466;2022-08-01T15:47:18;2.92;;;1.23;;
25972;SDS011;13765;51.166;4.466;2022-08-01T15:49:44;2.95;;;0.90;;
25972;SDS011;13765;51.166;4.466;2022-08-01T15:52:09;2.45;;;1.08;;
25972;SDS011;13765;51.166;4.466;2022-08-01T15:54:35;3.25;;;1.20;;
25972;SDS011;13765;51.166;4.466;2022-08-01T15:57:02;5.15;;;1.23;;
25972;SDS011;13765;51.166;4.466;2022-08-01T15:59:28;3.80;;;1.40;;
25972;SDS011;13765;51.166;4.466;2022-08-01T16:01:56;5.75;;;1.77;;
25972;SDS011;13765;51.166;4.466;2022-08-01T16:04:29;3.50;;;1.20;;
25972;SDS011;13765;51.166;4.466;2022-08-01T16:06:55;3.35;;;1.10;;
25972;SDS011;13765;51.166;4.466;2022-08-01T16:09:24;6.63;;;0.90;;